createdAt,value
2018-09-03T00:01:39.832Z,2.50
2018-09-03T00:04:09.314Z,3.20
2018-09-03T00:06:38.886Z,3.63
2018-09-03T00:09:09.919Z,3.87
2018-09-03T00:11:39.255Z,3.07
2018-09-03T00:14:08.513Z,2.97
2018-09-03T00:16:37.833Z,3.57
2018-09-03T00:19:07.265Z,2.50
2018-09-03T00:21:36.698Z,2.87
2018-09-03T00:24:06.201Z,2.87
2018-09-03T00:26:35.612Z,3.73
2018-09-03T00:29:05.382Z,4.00
2018-09-03T00:31:40.052Z,3.40
2018-09-03T00:34:14.563Z,2.97
2018-09-03T00:36:49.284Z,3.50
2018-09-03T00:39:23.894Z,3.07
2018-09-03T00:41:58.513Z,2.73
2018-09-03T00:44:33.178Z,4.10
2018-09-03T00:47:06.170Z,2.80
2018-09-03T00:49:35.627Z,3.90
2018-09-03T00:52:04.836Z,3.33
2018-09-03T00:54:34.922Z,3.90
2018-09-03T00:57:04.965Z,3.63
2018-09-03T00:59:34.618Z,3.00
2018-09-03T01:02:04.568Z,4.73
2018-09-03T01:04:34.319Z,5.47
2018-09-03T01:07:03.998Z,4.13
2018-09-03T01:09:33.423Z,3.37
2018-09-03T01:12:03.042Z,3.37
2018-09-03T01:14:33.005Z,3.23
2018-09-03T01:17:02.438Z,3.07
2018-09-03T01:19:31.710Z,3.70
2018-09-03T01:22:01.239Z,3.23
2018-09-03T01:24:30.990Z,4.67
2018-09-03T01:27:00.326Z,2.87
2018-09-03T01:29:29.751Z,3.83
2018-09-03T01:31:59.370Z,3.57
2018-09-03T01:34:28.913Z,3.23
2018-09-03T01:36:58.536Z,3.40
2018-09-03T01:39:28.488Z,3.50
2018-09-03T01:41:57.808Z,3.37
2018-09-03T01:44:27.278Z,3.80
2018-09-03T01:46:56.916Z,3.60
2018-09-03T01:49:26.698Z,3.97
2018-09-03T01:51:56.296Z,3.70
2018-09-03T01:54:26.638Z,3.40
2018-09-03T01:56:55.906Z,4.30
2018-09-03T01:59:25.184Z,4.23
2018-09-03T02:01:54.688Z,3.73
2018-09-03T02:04:24.602Z,3.80
2018-09-03T02:06:54.010Z,4.50
2018-09-03T02:09:23.534Z,3.73
2018-09-03T02:11:52.860Z,4.53
2018-09-03T02:14:22.292Z,3.87
2018-09-03T02:16:51.468Z,8.13
2018-09-03T02:19:20.830Z,4.13
2018-09-03T02:21:50.144Z,3.73
2018-09-03T02:24:19.730Z,4.13
2018-09-03T02:26:49.109Z,3.77
2018-09-03T02:29:18.388Z,3.93
2018-09-03T02:31:47.824Z,6.03
2018-09-03T02:34:17.732Z,3.77
2018-09-03T02:36:47.151Z,4.83
2018-09-03T02:39:16.612Z,4.87
2018-09-03T02:41:46.203Z,5.50
2018-09-03T02:44:15.615Z,5.10
2018-09-03T02:46:45.512Z,5.10
2018-09-03T02:49:14.892Z,4.33
2018-09-03T02:51:44.777Z,4.70
2018-09-03T02:54:14.346Z,5.20
2018-09-03T02:56:43.840Z,4.33
2018-09-03T02:59:13.248Z,3.90
2018-09-03T03:01:42.486Z,4.87
2018-09-03T03:04:11.953Z,4.57
2018-09-03T03:06:41.554Z,5.47
2018-09-03T03:09:11.046Z,4.37
2018-09-03T03:11:40.787Z,15.57
2018-09-03T03:14:10.574Z,5.00
2018-09-03T03:16:40.809Z,4.70
2018-09-03T03:19:10.318Z,5.37
2018-09-03T03:21:39.834Z,5.07
2018-09-03T03:24:09.366Z,6.80
2018-09-03T03:26:39.467Z,8.37
2018-09-03T03:29:09.835Z,5.40
2018-09-03T03:31:39.390Z,7.00
2018-09-03T03:34:08.628Z,7.23
2018-09-03T03:36:38.043Z,7.03
2018-09-03T03:39:08.839Z,6.77
2018-09-03T03:41:38.548Z,5.63
2018-09-03T03:44:08.097Z,6.20
2018-09-03T03:46:37.426Z,6.17
2018-09-03T03:49:07.238Z,6.03
2018-09-03T03:51:36.794Z,5.77
2018-09-03T03:54:06.307Z,5.77
2018-09-03T03:56:36.041Z,6.03
2018-09-03T03:59:05.250Z,7.57
2018-09-03T04:01:34.650Z,6.30
2018-09-03T04:04:03.866Z,6.70
2018-09-03T04:06:33.191Z,6.10
2018-09-03T04:09:02.744Z,5.63
2018-09-03T04:11:31.837Z,6.30
2018-09-03T04:14:01.228Z,5.33
2018-09-03T04:16:30.472Z,6.90
2018-09-03T04:18:59.794Z,6.53
2018-09-03T04:21:28.873Z,6.40
2018-09-03T04:23:58.109Z,5.70
2018-09-03T04:26:27.277Z,6.37
2018-09-03T04:28:56.623Z,8.67
2018-09-03T04:31:25.977Z,6.30
2018-09-03T04:33:55.293Z,6.57
2018-09-03T04:36:24.777Z,7.33
2018-09-03T04:38:54.215Z,5.40
2018-09-03T04:41:23.752Z,6.17
2018-09-03T04:43:53.505Z,8.00
2018-09-03T04:46:23.420Z,6.83
2018-09-03T04:48:52.903Z,7.47
2018-09-03T04:51:22.695Z,7.13
2018-09-03T04:53:52.159Z,6.77
2018-09-03T04:56:22.335Z,6.57
2018-09-03T04:58:53.400Z,6.47
2018-09-03T05:01:24.002Z,7.20
2018-09-03T05:03:54.539Z,9.50
2018-09-03T05:06:24.797Z,6.63
2018-09-03T05:08:54.665Z,5.80
2018-09-03T05:11:24.318Z,7.90
2018-09-03T05:13:54.668Z,7.57
2018-09-03T05:16:24.856Z,7.20
2018-09-03T05:18:54.660Z,8.17
2018-09-03T05:21:24.260Z,8.83
2018-09-03T05:23:54.027Z,6.93
2018-09-03T05:26:24.339Z,7.33
2018-09-03T05:28:55.235Z,7.47
2018-09-03T05:31:25.776Z,7.73
2018-09-03T05:33:55.586Z,7.70
2018-09-03T05:36:25.401Z,7.10
2018-09-03T05:38:55.323Z,11.07
2018-09-03T05:41:25.839Z,8.53
2018-09-03T05:43:56.047Z,7.47
2018-09-03T05:46:26.366Z,9.40
2018-09-03T05:48:56.190Z,9.73
2018-09-03T05:51:26.157Z,7.73
2018-09-03T05:53:56.150Z,8.00
2018-09-03T05:56:25.993Z,7.43
2018-09-03T05:58:56.506Z,9.30
2018-09-03T06:01:26.201Z,7.67
2018-09-03T06:03:56.951Z,7.83
2018-09-03T06:06:26.601Z,7.20
2018-09-03T06:08:56.737Z,9.10
2018-09-03T06:11:27.187Z,8.43
2018-09-03T06:13:57.251Z,10.27
2018-09-03T06:16:27.874Z,9.10
2018-09-03T06:18:58.269Z,9.73
2018-09-03T06:21:28.175Z,10.13
2018-09-03T06:23:58.433Z,11.13
2018-09-03T06:26:28.570Z,8.10
2018-09-03T06:28:59.023Z,10.50
2018-09-03T06:31:28.997Z,8.80
2018-09-03T06:33:59.317Z,9.97
2018-09-03T06:36:29.170Z,8.30
2018-09-03T06:38:58.892Z,9.03
2018-09-03T06:41:28.872Z,9.93
2018-09-03T06:43:59.828Z,12.47
2018-09-03T06:46:30.295Z,10.80
2018-09-03T06:49:00.709Z,8.73
2018-09-03T06:51:32.081Z,12.23
2018-09-03T06:54:02.158Z,13.93
2018-09-03T06:56:31.834Z,14.00
2018-09-03T06:59:02.156Z,11.07
2018-09-03T07:01:32.245Z,9.80
2018-09-03T07:04:02.771Z,11.07
2018-09-03T07:06:32.735Z,10.07
2018-09-03T07:09:03.082Z,9.40
2018-09-03T07:11:33.308Z,11.33
2018-09-03T07:14:03.421Z,11.37
2018-09-03T07:16:33.261Z,11.43
2018-09-03T07:19:03.251Z,10.60
2018-09-03T07:21:34.263Z,9.67
2018-09-03T07:24:04.825Z,10.87
2018-09-03T07:26:35.798Z,11.03
2018-09-03T07:29:06.369Z,13.57
2018-09-03T07:31:36.296Z,10.03
2018-09-03T07:34:06.396Z,11.00
2018-09-03T07:36:37.573Z,11.30
2018-09-03T07:39:08.373Z,11.97
2018-09-03T07:41:39.468Z,10.53
2018-09-03T07:44:09.790Z,11.90
2018-09-03T07:46:40.136Z,10.47
2018-09-03T07:49:10.279Z,12.30
2018-09-03T07:51:40.780Z,11.17
2018-09-03T07:54:10.800Z,12.73
2018-09-03T07:56:40.817Z,11.20
2018-09-03T07:59:10.832Z,12.50
2018-09-03T08:01:41.024Z,12.60
2018-09-03T08:04:11.578Z,15.90
2018-09-03T08:06:42.111Z,13.07
2018-09-03T08:09:13.077Z,13.13
2018-09-03T08:11:43.440Z,16.47
2018-09-03T08:14:14.193Z,14.37
2018-09-03T08:16:45.677Z,17.97
2018-09-03T08:19:15.840Z,13.37
2018-09-03T08:21:45.877Z,15.87
2018-09-03T08:24:16.694Z,16.63
2018-09-03T08:26:46.880Z,16.57
2018-09-03T08:29:16.916Z,14.27
2018-09-03T08:31:46.916Z,14.00
2018-09-03T08:34:18.326Z,16.43
2018-09-03T08:36:48.574Z,15.73
2018-09-03T08:39:18.215Z,13.80
2018-09-03T08:41:48.486Z,13.87
2018-09-03T08:44:18.707Z,15.47
2018-09-03T08:46:49.243Z,15.17
2018-09-03T08:49:19.778Z,17.20
2018-09-03T08:51:50.144Z,20.17
2018-09-03T08:54:20.527Z,17.73
2018-09-03T08:56:50.682Z,22.77
2018-09-03T08:59:21.156Z,17.67
2018-09-03T09:01:50.851Z,17.57
2018-09-03T09:04:20.687Z,18.10
2018-09-03T09:06:50.911Z,16.80
2018-09-03T09:09:21.013Z,17.03
2018-09-03T09:11:50.744Z,17.83
2018-09-03T09:14:20.493Z,16.57
2018-09-03T09:16:50.462Z,18.97
2018-09-03T09:19:20.295Z,20.10
2018-09-03T09:21:50.525Z,18.87
2018-09-03T09:24:20.509Z,16.57
2018-09-03T09:26:50.702Z,15.97
2018-09-03T09:29:21.179Z,18.10
2018-09-03T09:31:50.786Z,16.47
2018-09-03T09:34:21.030Z,15.80
2018-09-03T09:36:51.112Z,18.77
2018-09-03T09:39:20.963Z,15.23
2018-09-03T09:41:51.105Z,14.33
2018-09-03T09:44:21.417Z,15.00
2018-09-03T09:46:51.093Z,14.97
2018-09-03T09:49:21.895Z,16.23
2018-09-03T09:51:52.117Z,16.07
2018-09-03T09:54:21.914Z,15.33
2018-09-03T09:56:51.827Z,15.33
2018-09-03T09:59:21.526Z,15.53
2018-09-03T10:01:51.724Z,15.23
2018-09-03T10:04:21.937Z,17.17
2018-09-03T10:06:51.985Z,16.80
2018-09-03T10:09:21.968Z,16.27
2018-09-03T10:11:51.808Z,16.93
2018-09-03T10:14:21.522Z,16.83
2018-09-03T10:16:51.763Z,15.00
2018-09-03T10:19:21.530Z,18.10
2018-09-03T10:21:52.517Z,15.70
2018-09-03T10:24:22.902Z,17.63
2018-09-03T10:26:53.170Z,18.77
2018-09-03T10:29:23.137Z,14.77
2018-09-03T10:31:53.541Z,17.10
2018-09-03T10:34:23.526Z,15.87
2018-09-03T10:36:54.463Z,16.63
2018-09-03T10:39:24.796Z,17.40
2018-09-03T10:41:54.409Z,18.57
2018-09-03T10:44:24.291Z,15.13
2018-09-03T10:46:54.518Z,16.20
2018-09-03T10:49:24.293Z,17.10
2018-09-03T10:51:54.727Z,16.47
2018-09-03T10:54:24.916Z,14.53
2018-09-03T10:56:55.349Z,16.47
2018-09-03T10:59:25.621Z,19.57
2018-09-03T11:01:56.743Z,18.83
2018-09-03T11:04:27.347Z,16.40
2018-09-03T11:06:57.889Z,17.13
2018-09-03T11:09:27.847Z,17.70
2018-09-03T11:11:57.861Z,17.20
2018-09-03T11:14:27.489Z,17.83
2018-09-03T11:16:57.606Z,15.97
2018-09-03T11:19:29.683Z,17.53
2018-09-03T11:21:59.412Z,17.43
2018-09-03T11:24:29.364Z,18.67
2018-09-03T11:26:59.351Z,16.50
2018-09-03T11:29:28.713Z,18.60
2018-09-03T11:31:58.643Z,18.87
2018-09-03T11:34:28.616Z,15.83
2018-09-03T11:36:58.987Z,16.27
2018-09-03T11:39:29.140Z,17.23
2018-09-03T11:41:59.604Z,15.63
2018-09-03T11:44:29.799Z,16.77
2018-09-03T11:46:59.913Z,16.13
2018-09-03T11:49:30.136Z,15.90
2018-09-03T11:52:00.448Z,18.67
2018-09-03T11:54:30.489Z,16.30
2018-09-03T11:57:00.593Z,14.53
2018-09-03T11:59:30.644Z,16.37
2018-09-03T12:02:01.108Z,19.40
2018-09-03T12:04:31.299Z,16.33
2018-09-03T12:07:02.138Z,16.73
2018-09-03T12:09:32.588Z,16.33
2018-09-03T12:12:02.689Z,16.83
2018-09-03T12:14:36.200Z,22.33
2018-09-03T12:17:06.767Z,15.63
2018-09-03T12:19:36.971Z,15.47
2018-09-03T12:22:07.217Z,18.77
2018-09-03T12:24:37.244Z,16.47
2018-09-03T12:27:07.181Z,15.23
2018-09-03T12:29:39.371Z,13.53
2018-09-03T12:32:09.296Z,14.33
2018-09-03T12:34:39.412Z,15.10
2018-09-03T12:37:09.013Z,14.00
2018-09-03T12:39:38.401Z,16.43
2018-09-03T12:42:08.419Z,15.83
2018-09-03T12:44:39.448Z,14.77
2018-09-03T12:47:09.509Z,14.07
2018-09-03T12:49:39.608Z,15.67
2018-09-03T12:52:10.344Z,14.43
2018-09-03T12:54:40.367Z,15.93
2018-09-03T12:57:10.540Z,16.57
2018-09-03T12:59:40.629Z,15.50
2018-09-03T13:02:11.831Z,16.00
2018-09-03T13:04:42.559Z,14.57
2018-09-03T13:07:13.195Z,15.93
2018-09-03T13:09:43.268Z,21.60
2018-09-03T13:12:13.203Z,14.40
2018-09-03T13:14:43.230Z,14.13
2018-09-03T13:17:13.464Z,14.17
2018-09-03T13:19:43.851Z,14.97
2018-09-03T13:22:16.076Z,16.33
2018-09-03T13:24:46.630Z,14.33
2018-09-03T13:27:17.091Z,15.67
2018-09-03T13:29:47.201Z,14.60
2018-09-03T13:32:17.401Z,14.80
2018-09-03T13:34:47.860Z,16.33
2018-09-03T13:37:18.292Z,16.60
2018-09-03T13:39:48.880Z,14.50
2018-09-03T13:42:19.279Z,15.97
2018-09-03T13:44:49.428Z,13.60
2018-09-03T13:47:19.450Z,16.97
2018-09-03T13:49:49.642Z,13.23
2018-09-03T13:52:19.985Z,13.17
2018-09-03T13:54:50.511Z,15.07
2018-09-03T13:57:20.659Z,12.20
2018-09-03T13:59:50.705Z,14.03
2018-09-03T14:02:20.737Z,13.73
2018-09-03T14:04:50.686Z,17.07
2018-09-03T14:07:22.585Z,13.13
2018-09-03T14:09:53.365Z,13.43
2018-09-03T14:12:24.404Z,14.10
2018-09-03T14:14:54.975Z,13.43
2018-09-03T14:17:25.669Z,15.50
2018-09-03T14:19:56.089Z,16.83
2018-09-03T14:22:28.075Z,16.13
2018-09-03T14:24:58.409Z,14.13
2018-09-03T14:27:28.597Z,11.93
2018-09-03T14:29:58.451Z,13.97
2018-09-03T14:32:28.651Z,14.50
2018-09-03T14:34:59.030Z,12.87
2018-09-03T14:37:29.140Z,13.57
2018-09-03T14:39:59.378Z,17.93
2018-09-03T14:42:29.853Z,12.90
2018-09-03T14:45:00.697Z,14.10
2018-09-03T14:47:31.950Z,13.03
2018-09-03T14:50:02.998Z,12.93
2018-09-03T14:52:33.418Z,13.47
2018-09-03T14:55:04.737Z,12.87
2018-09-03T14:57:35.715Z,16.20
2018-09-03T15:00:07.684Z,13.57
2018-09-03T15:02:37.861Z,16.83
2018-09-03T15:05:08.100Z,13.27
2018-09-03T15:07:38.474Z,14.17
2018-09-03T15:10:09.530Z,13.77
2018-09-03T15:12:39.354Z,14.23
2018-09-03T15:15:09.814Z,15.07
2018-09-03T15:17:39.980Z,15.40
2018-09-03T15:20:10.559Z,12.60
2018-09-03T15:22:40.832Z,12.03
2018-09-03T15:25:11.080Z,14.23
2018-09-03T15:27:41.550Z,13.40
2018-09-03T15:30:11.386Z,13.57
2018-09-03T15:32:41.536Z,14.17
2018-09-03T15:35:12.562Z,12.50
2018-09-03T15:37:43.222Z,14.03
2018-09-03T15:40:13.648Z,13.13
2018-09-03T15:42:43.574Z,17.63
2018-09-03T15:45:14.112Z,15.67
2018-09-03T15:47:44.554Z,13.80
2018-09-03T15:50:14.893Z,13.37
2018-09-03T15:52:45.552Z,12.50
2018-09-03T15:55:15.763Z,13.13
2018-09-03T15:57:46.085Z,13.00
2018-09-03T16:00:16.125Z,14.23
2018-09-03T16:02:48.290Z,13.33
2018-09-03T16:05:18.728Z,14.50
2018-09-03T16:07:49.078Z,12.93
2018-09-03T16:10:19.946Z,13.77
2018-09-03T16:12:50.430Z,15.17
2018-09-03T16:15:21.848Z,13.43
2018-09-03T16:17:52.004Z,14.53
2018-09-03T16:20:22.515Z,16.10
2018-09-03T16:22:53.131Z,14.07
2018-09-03T16:25:23.400Z,12.77
2018-09-03T16:27:53.460Z,15.07
2018-09-03T16:30:24.373Z,13.57
2018-09-03T16:32:54.770Z,13.00
2018-09-03T16:35:25.005Z,16.70
2018-09-03T16:37:55.743Z,13.67
2018-09-03T16:40:25.957Z,13.20
2018-09-03T16:42:55.893Z,13.73
2018-09-03T16:45:26.230Z,15.40
2018-09-03T16:47:56.786Z,14.00
2018-09-03T16:50:27.647Z,13.07
2018-09-03T16:52:58.161Z,14.80
2018-09-03T16:55:29.485Z,13.03
2018-09-03T16:58:00.199Z,14.13
2018-09-03T17:00:31.155Z,16.20
2018-09-03T17:03:02.032Z,13.10
2018-09-03T17:05:32.330Z,19.90
2018-09-03T17:08:03.387Z,12.93
2018-09-03T17:10:33.662Z,12.87
2018-09-03T17:13:03.030Z,12.23
2018-09-03T17:15:35.927Z,13.47
2018-09-03T17:18:10.432Z,11.97
2018-09-03T17:20:41.947Z,15.67
2018-09-03T17:23:13.691Z,14.13
2018-09-03T17:25:44.864Z,17.53
2018-09-03T17:28:15.321Z,13.30
2018-09-03T17:30:46.450Z,13.03
2018-09-03T17:33:17.538Z,13.20
2018-09-03T17:35:48.472Z,13.30
2018-09-03T17:38:18.888Z,11.47
2018-09-03T17:40:48.905Z,12.93
2018-09-03T17:43:19.238Z,13.90
2018-09-03T17:45:49.955Z,13.87
2018-09-03T17:48:20.787Z,14.13
2018-09-03T17:50:51.216Z,13.77
2018-09-03T17:53:21.442Z,13.00
2018-09-03T17:55:51.764Z,15.20
2018-09-03T17:58:21.622Z,12.03
2018-09-03T18:00:51.370Z,14.07
2018-09-03T18:03:20.980Z,14.10
2018-09-03T18:05:50.568Z,12.63
2018-09-03T18:08:20.172Z,15.90
2018-09-03T18:10:49.655Z,13.10
2018-09-03T18:13:18.961Z,12.43
2018-09-03T18:15:48.360Z,14.20
2018-09-03T18:18:17.626Z,12.83
2018-09-03T18:20:46.683Z,12.90
2018-09-03T18:23:16.225Z,12.37
2018-09-03T18:25:45.598Z,13.40
2018-09-03T18:28:14.919Z,15.77
2018-09-03T18:30:44.120Z,12.53
2018-09-03T18:33:13.324Z,13.30
2018-09-03T18:35:42.605Z,14.80
2018-09-03T18:38:11.741Z,12.00
2018-09-03T18:40:41.400Z,13.10
2018-09-03T18:43:11.343Z,14.40
2018-09-03T18:45:40.979Z,13.17
2018-09-03T18:48:10.595Z,18.53
2018-09-03T18:50:40.109Z,15.03
2018-09-03T18:53:09.348Z,13.67
2018-09-03T18:55:38.718Z,12.90
2018-09-03T18:58:08.120Z,14.53
2018-09-03T19:00:37.689Z,13.00
2018-09-03T19:03:07.517Z,14.07
2018-09-03T19:05:37.321Z,15.70
2018-09-03T19:08:06.876Z,14.57
2018-09-03T19:10:36.103Z,15.70
2018-09-03T19:13:05.478Z,13.63
2018-09-03T19:15:35.104Z,13.23
2018-09-03T19:18:04.713Z,15.17
2018-09-03T19:20:34.229Z,15.57
2018-09-03T19:23:03.732Z,14.87
2018-09-03T19:25:33.128Z,17.77
2018-09-03T19:28:02.634Z,16.10
2018-09-03T19:30:32.065Z,16.63
2018-09-03T19:33:01.510Z,13.50
2018-09-03T19:35:30.811Z,16.37
2018-09-03T19:38:00.159Z,14.93
2018-09-03T19:40:29.675Z,14.90
2018-09-03T19:42:59.373Z,13.83
2018-09-03T19:45:28.588Z,12.87
2018-09-03T19:47:58.059Z,14.23
2018-09-03T19:50:27.540Z,13.20
2018-09-03T19:52:57.179Z,13.50
2018-09-03T19:55:26.616Z,16.13
2018-09-03T19:57:55.823Z,17.80
2018-09-03T20:00:25.245Z,15.10
2018-09-03T20:02:55.191Z,18.73
2018-09-03T20:05:24.639Z,16.10
2018-09-03T20:07:54.103Z,16.07
2018-09-03T20:10:23.644Z,15.10
2018-09-03T20:12:53.175Z,18.37
2018-09-03T20:15:27.927Z,13.60
2018-09-03T20:17:57.237Z,15.27
2018-09-03T20:20:26.579Z,15.03
2018-09-03T20:22:56.114Z,14.63
2018-09-03T20:25:25.535Z,12.93
2018-09-03T20:27:54.989Z,15.67
2018-09-03T20:30:24.407Z,14.53
2018-09-03T20:32:53.947Z,16.40
2018-09-03T20:35:23.548Z,16.77
2018-09-03T20:37:53.094Z,13.60
2018-09-03T20:40:22.363Z,14.40
2018-09-03T20:42:51.661Z,15.27
2018-09-03T20:45:20.996Z,15.77
2018-09-03T20:47:50.575Z,14.40
2018-09-03T20:50:20.077Z,14.10
2018-09-03T20:52:49.406Z,13.93
2018-09-03T20:55:18.716Z,14.87
2018-09-03T20:57:48.102Z,14.57
2018-09-03T21:00:17.614Z,13.97
2018-09-03T21:02:47.662Z,14.37
2018-09-03T21:05:17.097Z,14.43
2018-09-03T21:07:46.761Z,17.13
2018-09-03T21:10:16.120Z,14.07
2018-09-03T21:12:45.375Z,13.33
2018-09-03T21:15:14.764Z,14.70
2018-09-03T21:17:44.332Z,14.03
2018-09-03T21:20:13.862Z,18.33
2018-09-03T21:22:43.608Z,13.40
2018-09-03T21:25:13.138Z,16.07
2018-09-03T21:27:42.783Z,13.57
2018-09-03T21:30:12.969Z,14.07
2018-09-03T21:32:42.474Z,14.50
2018-09-03T21:35:11.799Z,15.03
2018-09-03T21:37:41.157Z,15.30
2018-09-03T21:40:10.573Z,14.13
2018-09-03T21:42:39.825Z,19.80
2018-09-03T21:45:09.365Z,13.97
2018-09-03T21:47:38.589Z,16.87
2018-09-03T21:50:07.977Z,14.37
2018-09-03T21:52:37.305Z,13.63
2018-09-03T21:55:06.789Z,14.27
2018-09-03T21:57:36.221Z,13.97
2018-09-03T22:00:05.770Z,13.37
2018-09-03T22:02:35.219Z,13.90
2018-09-03T22:05:04.897Z,14.90
2018-09-03T22:07:34.444Z,15.07
2018-09-03T22:10:03.788Z,14.17
2018-09-03T22:12:34.031Z,14.20
2018-09-03T22:15:03.377Z,15.13
2018-09-03T22:17:32.667Z,14.03
2018-09-03T22:20:02.492Z,14.30
2018-09-03T22:22:31.805Z,16.37
2018-09-03T22:25:01.257Z,15.30
2018-09-03T22:27:30.690Z,14.53
2018-09-03T22:29:59.882Z,15.00
2018-09-03T22:32:29.097Z,15.20
2018-09-03T22:34:58.300Z,14.90
2018-09-03T22:37:27.705Z,14.43
2018-09-03T22:39:57.050Z,16.73
2018-09-03T22:42:27.636Z,16.03
2018-09-03T22:44:58.010Z,15.47
2018-09-03T22:47:27.217Z,15.73
2018-09-03T22:49:56.545Z,13.97
2018-09-03T22:52:25.742Z,16.23
2018-09-03T22:54:55.237Z,14.30
2018-09-03T22:57:24.570Z,14.70
2018-09-03T22:59:54.060Z,15.03
2018-09-03T23:02:23.525Z,13.73
2018-09-03T23:04:53.349Z,12.93
2018-09-03T23:07:22.562Z,14.37
2018-09-03T23:09:51.933Z,12.70
2018-09-03T23:12:21.414Z,14.07
2018-09-03T23:14:50.714Z,13.33
2018-09-03T23:17:20.202Z,17.13
2018-09-03T23:19:49.580Z,14.07
2018-09-03T23:22:18.906Z,15.23
2018-09-03T23:24:48.366Z,14.20
2018-09-03T23:27:17.663Z,17.53
2018-09-03T23:29:47.151Z,13.33
2018-09-03T23:32:16.540Z,15.30
2018-09-03T23:34:45.804Z,15.03
2018-09-03T23:37:15.163Z,12.67
2018-09-03T23:39:44.289Z,14.87
2018-09-03T23:42:13.688Z,12.60
2018-09-03T23:44:43.362Z,13.60
2018-09-03T23:47:12.604Z,14.67
2018-09-03T23:49:41.802Z,13.43
2018-09-03T23:52:11.099Z,13.03
2018-09-03T23:54:40.515Z,14.53
2018-09-03T23:57:09.746Z,13.20
2018-09-03T23:59:39.103Z,13.90
